TimeCDT,TemperatureF,Dew PointF,Humidity,Sea Level PressureIn,VisibilityMPH,Wind Direction,Wind SpeedMPH,Gust SpeedMPH,PrecipitationIn,Events,Conditions,WindDirDegrees,DateUTC
12:20 AM,71.6,71.6,100,29.92,2.5,Calm,Calm,-,N/A,,Clear,0,2013-08-06 05:20:00
12:30 AM,71.6,71.6,100,29.92,3.0,Calm,Calm,-,N/A,,Clear,0,2013-08-06 05:30:00
12:38 AM,71.6,71.6,100,29.93,1.2,Calm,Calm,-,N/A,,Clear,0,2013-08-06 05:38:00
12:46 AM,69.8,69.8,100,29.93,0.8,ENE,3.5,-,N/A,,Clear,70,2013-08-06 05:46:00
12:51 AM,69.8,69.8,100,29.93,1.5,NNE,3.5,-,N/A,,Clear,30,2013-08-06 05:51:00
12:53 AM,70.0,70.0,100,29.87,2.0,NNE,5.8,-,N/A,,Clear,20,2013-08-06 05:53:00
1:02 AM,71.6,71.6,100,29.94,1.2,North,10.4,-,N/A,,Partly Cloudy,10,2013-08-06 06:02:00
1:04 AM,71.6,71.6,100,29.94,0.8,North,9.2,-,N/A,,Mist,10,2013-08-06 06:04:00
1:13 AM,71.6,71.6,100,29.94,1.2,North,9.2,-,N/A,,Scattered Clouds,360,2013-08-06 06:13:00
1:24 AM,71.6,71.6,100,29.93,1.0,North,8.1,-,N/A,,Mist,350,2013-08-06 06:24:00
1:29 AM,71.6,71.6,100,29.92,2.0,North,5.8,-,N/A,,Mostly Cloudy,350,2013-08-06 06:29:00
1:39 AM,71.6,71.6,100,29.92,3.0,North,6.9,-,N/A,,Overcast,350,2013-08-06 06:39:00
1:53 AM,72.0,72.0,100,29.85,3.0,Calm,Calm,-,N/A,,Scattered Clouds,0,2013-08-06 06:53:00
2:16 AM,71.6,71.6,100,29.89,2.5,SE,5.8,-,N/A,,Partly Cloudy,130,2013-08-06 07:16:00
2:24 AM,71.6,71.6,100,29.89,1.2,ESE,4.6,-,N/A,,Mostly Cloudy,120,2013-08-06 07:24:00
2:40 AM,71.6,71.6,100,29.88,0.5,East,4.6,-,N/A,Fog,Fog,100,2013-08-06 07:40:00
2:53 AM,71.1,71.1,100,29.81,1.0,East,3.5,-,N/A,,Mist,80,2013-08-06 07:53:00
3:15 AM,71.6,71.6,100,29.89,0.5,East,3.5,-,N/A,Fog,Fog,80,2013-08-06 08:15:00
3:32 AM,71.6,71.6,100,29.89,0.2,ENE,4.6,-,N/A,Fog,Fog,60,2013-08-06 08:32:00
3:53 AM,71.1,71.1,100,29.82,0.2,East,3.5,-,N/A,Fog,Fog,100,2013-08-06 08:53:00
4:53 AM,71.1,71.1,100,29.81,0.2,East,3.5,-,N/A,Fog,Fog,100,2013-08-06 09:53:00
5:35 AM,71.6,71.6,100,29.88,0.2,SE,4.6,-,N/A,Fog,Fog,140,2013-08-06 10:35:00
5:48 AM,71.6,71.6,100,29.88,0.2,SE,3.5,-,N/A,Fog,Fog,130,2013-08-06 10:48:00
5:53 AM,71.1,71.1,100,29.82,0.2,SE,4.6,-,N/A,Fog,Fog,130,2013-08-06 10:53:00
6:53 AM,71.1,71.1,100,29.81,0.2,South,4.6,-,N/A,Fog,Fog,180,2013-08-06 11:53:00
7:31 AM,69.8,69.8,100,29.88,1.0,Calm,Calm,-,N/A,,Overcast,0,2013-08-06 12:31:00
7:46 AM,69.8,69.8,100,29.89,0.8,Calm,Calm,-,N/A,,Overcast,0,2013-08-06 12:46:00
7:53 AM,70.0,70.0,100,29.83,1.0,West,3.5,-,N/A,,Overcast,260,2013-08-06 12:53:00
8:05 AM,69.8,69.8,100,29.90,0.8,Calm,Calm,-,N/A,,Overcast,0,2013-08-06 13:05:00
8:19 AM,69.8,69.8,100,29.89,1.5,Calm,Calm,-,N/A,,Overcast,0,2013-08-06 13:19:00
8:24 AM,71.6,71.6,100,29.90,3.0,Calm,Calm,-,N/A,,Overcast,0,2013-08-06 13:24:00
8:53 AM,71.1,70.0,96,29.84,6.0,NNE,3.5,-,0.00,,Overcast,20,2013-08-06 13:53:00
9:53 AM,73.0,70.0,90,29.85,10.0,North,-9999.0,-,0.00,,Overcast,0,2013-08-06 14:53:00
10:05 AM,73.4,71.6,94,29.91,10.0,NE,4.6,-,N/A,,Overcast,50,2013-08-06 15:05:00
10:42 AM,75.2,71.6,89,29.92,10.0,ENE,6.9,-,N/A,,Overcast,70,2013-08-06 15:42:00
10:53 AM,75.9,71.1,85,29.86,10.0,NE,8.1,-,N/A,,Overcast,50,2013-08-06 15:53:00
11:08 AM,75.2,69.8,83,29.93,10.0,NE,12.7,-,N/A,,Overcast,50,2013-08-06 16:08:00
11:53 AM,75.9,71.1,85,29.87,10.0,East,11.5,-,N/A,,Overcast,80,2013-08-06 16:53:00
12:03 PM,77.0,71.6,83,29.93,10.0,East,10.4,-,N/A,,Overcast,80,2013-08-06 17:03:00
12:53 PM,80.1,71.1,74,29.85,10.0,ESE,8.1,17.3,N/A,,Overcast,110,2013-08-06 17:53:00
1:25 PM,82.4,71.6,70,29.90,10.0,ESE,10.4,-,N/A,,Scattered Clouds,120,2013-08-06 18:25:00
1:53 PM,82.9,71.1,67,29.82,10.0,East,6.9,-,N/A,,Clear,100,2013-08-06 18:53:00
2:53 PM,84.9,70.0,61,29.81,10.0,ESE,4.6,-,N/A,,Clear,110,2013-08-06 19:53:00
3:53 PM,86.0,71.1,61,29.78,10.0,SE,5.8,-,N/A,,Clear,140,2013-08-06 20:53:00
4:53 PM,84.9,71.1,63,29.78,10.0,Calm,Calm,-,N/A,,Clear,0,2013-08-06 21:53:00
5:53 PM,81.0,73.9,79,29.80,7.0,South,5.8,-,0.01,Rain,Light Rain,170,2013-08-06 22:53:00
6:53 PM,80.1,73.9,81,29.79,10.0,NE,4.6,-,0.00,,Clear,50,2013-08-06 23:53:00
7:53 PM,81.0,72.0,74,29.76,10.0,ENE,8.1,-,N/A,,Clear,60,2013-08-07 00:53:00
8:53 PM,78.1,73.0,84,29.80,10.0,Calm,Calm,-,N/A,,Clear,0,2013-08-07 01:53:00
9:53 PM,75.9,73.0,91,29.82,10.0,South,3.5,-,N/A,,Clear,190,2013-08-07 02:53:00
10:53 PM,73.0,72.0,96,29.83,10.0,Calm,Calm,-,N/A,,Clear,0,2013-08-07 03:53:00
11:53 PM,73.9,71.1,91,29.84,10.0,ENE,4.6,-,N/A,,Clear,60,2013-08-07 04:53:00